createdAt,value
2019-04-29T00:02:37.855Z,3.73
2019-04-29T00:05:28.333Z,3.50
2019-04-29T00:08:18.703Z,3.87
2019-04-29T00:11:09.035Z,4.63
2019-04-29T00:13:59.399Z,4.37
2019-04-29T00:17:13.083Z,4.43
2019-04-29T00:20:19.089Z,6.10
2019-04-29T00:23:09.052Z,5.77
2019-04-29T00:25:59.411Z,6.43
2019-04-29T00:28:50.465Z,7.30
2019-04-29T00:31:40.896Z,6.57
2019-04-29T00:34:31.154Z,6.57
2019-04-29T00:37:40.326Z,6.50
2019-04-29T00:40:48.034Z,7.03
2019-04-29T00:43:49.350Z,7.27
2019-04-29T00:46:39.836Z,6.57
2019-04-29T00:49:30.704Z,6.90
2019-04-29T00:52:21.257Z,6.83
2019-04-29T00:55:14.385Z,4.40
2019-04-29T00:58:04.559Z,5.10
2019-04-29T01:00:55.074Z,6.13
2019-04-29T01:03:45.232Z,6.73
2019-04-29T01:06:35.531Z,6.90
2019-04-29T01:09:26.410Z,7.53
2019-04-29T01:12:16.432Z,8.03
2019-04-29T01:15:07.197Z,7.90
2019-04-29T01:17:57.663Z,8.30
2019-04-29T01:20:47.678Z,9.13
2019-04-29T01:23:38.004Z,8.93
2019-04-29T01:26:48.594Z,8.67
2019-04-29T01:29:38.550Z,8.83
2019-04-29T01:32:28.841Z,8.80
2019-04-29T01:35:19.089Z,8.93
2019-04-29T01:38:09.411Z,9.00
2019-04-29T01:41:08.650Z,8.60
2019-04-29T01:43:59.700Z,8.63
2019-04-29T01:46:50.237Z,9.00
2019-04-29T01:49:40.531Z,9.07
2019-04-29T01:52:31.146Z,8.60
2019-04-29T01:55:21.532Z,9.00
2019-04-29T01:58:11.620Z,9.07
2019-04-29T02:01:01.841Z,9.03
2019-04-29T02:03:52.105Z,8.70
2019-04-29T02:06:42.174Z,9.53
2019-04-29T02:09:43.961Z,9.37
2019-04-29T02:12:34.558Z,9.43
2019-04-29T02:15:25.158Z,10.00
2019-04-29T02:18:15.603Z,9.27
2019-04-29T02:21:05.636Z,9.30
2019-04-29T02:24:10.624Z,10.43
2019-04-29T02:27:01.107Z,9.73
2019-04-29T02:29:52.374Z,9.33
2019-04-29T02:32:42.467Z,9.93
2019-04-29T02:35:32.375Z,10.03
2019-04-29T02:38:35.946Z,10.27
2019-04-29T02:41:47.796Z,9.73
2019-04-29T02:44:37.722Z,10.20
2019-04-29T02:47:29.117Z,9.60
2019-04-29T02:50:21.799Z,9.43
2019-04-29T02:53:12.042Z,10.37
2019-04-29T02:56:02.953Z,9.47
2019-04-29T02:59:01.310Z,9.17
2019-04-29T03:02:10.642Z,10.00
2019-04-29T03:05:28.946Z,9.60
2019-04-29T03:08:19.335Z,9.60
2019-04-29T03:11:09.694Z,9.97
2019-04-29T03:14:00.237Z,9.30
2019-04-29T03:16:50.543Z,9.87
2019-04-29T03:19:59.713Z,10.03
2019-04-29T03:22:49.873Z,9.93
2019-04-29T03:25:40.239Z,9.50
2019-04-29T03:28:30.275Z,10.17
2019-04-29T03:31:20.752Z,9.33
2019-04-29T03:34:10.714Z,10.13
2019-04-29T03:37:01.223Z,9.67
2019-04-29T03:39:51.477Z,10.90
2019-04-29T03:42:41.607Z,9.77
2019-04-29T03:45:32.050Z,10.20
2019-04-29T03:48:22.675Z,10.13
2019-04-29T03:51:12.700Z,9.63
2019-04-29T03:54:03.041Z,9.30
2019-04-29T03:56:53.401Z,9.97
2019-04-29T03:59:43.952Z,9.00
2019-04-29T04:02:53.011Z,9.70
2019-04-29T04:06:08.018Z,9.10
2019-04-29T04:09:19.643Z,8.27
2019-04-29T04:12:09.577Z,8.03
2019-04-29T04:14:59.892Z,7.70
2019-04-29T04:18:02.027Z,7.90
2019-04-29T04:20:51.951Z,7.97
2019-04-29T04:23:42.048Z,7.80
2019-04-29T04:26:32.259Z,6.80
2019-04-29T04:29:22.905Z,7.00
2019-04-29T04:32:13.183Z,7.57
2019-04-29T04:35:03.509Z,7.73
2019-04-29T04:37:53.847Z,7.43
2019-04-29T04:41:09.569Z,6.23
2019-04-29T04:43:59.705Z,6.73
2019-04-29T04:46:49.802Z,7.07
2019-04-29T04:49:40.170Z,6.47
2019-04-29T04:52:31.064Z,5.95
2019-04-29T04:55:23.732Z,5.37
2019-04-29T04:58:15.698Z,5.58
2019-04-29T05:01:06.539Z,4.78
2019-04-29T05:03:57.483Z,3.90
2019-04-29T05:06:48.441Z,3.83
2019-04-29T05:09:39.760Z,4.25
2019-04-29T05:12:30.855Z,4.62
2019-04-29T05:15:21.872Z,4.33
2019-04-29T05:18:12.514Z,4.28
2019-04-29T05:21:03.042Z,4.67
2019-04-29T05:23:53.999Z,3.92
2019-04-29T05:26:44.840Z,3.92
2019-04-29T05:29:35.649Z,3.77
2019-04-29T05:32:26.629Z,3.98
2019-04-29T05:35:20.740Z,4.20
2019-04-29T05:38:25.098Z,4.00
2019-04-29T05:41:16.044Z,3.60
2019-04-29T05:44:18.812Z,3.90
2019-04-29T05:47:12.195Z,4.42
2019-04-29T05:50:41.060Z,4.28
2019-04-29T05:53:41.483Z,3.90
2019-04-29T05:56:32.117Z,3.77
2019-04-29T05:59:23.124Z,5.10
2019-04-29T06:02:14.146Z,4.08
2019-04-29T06:05:05.271Z,3.90
2019-04-29T06:08:00.445Z,3.67
2019-04-29T06:10:48.331Z,3.65
2019-04-29T06:13:39.255Z,4.05
2019-04-29T06:16:29.729Z,3.98
2019-04-29T06:19:20.698Z,4.58
2019-04-29T06:22:11.563Z,4.20
2019-04-29T06:25:02.258Z,5.08
2019-04-29T06:27:56.114Z,4.10
2019-04-29T06:30:50.083Z,4.60
2019-04-29T06:33:41.475Z,4.33
2019-04-29T06:36:32.168Z,4.22
2019-04-29T06:39:22.849Z,4.72
2019-04-29T06:42:15.510Z,4.87
2019-04-29T06:45:06.275Z,4.53
2019-04-29T06:47:56.566Z,4.70
2019-04-29T06:50:49.827Z,5.30
2019-04-29T06:53:40.298Z,4.77
2019-04-29T06:56:30.864Z,5.10
2019-04-29T06:59:21.426Z,4.43
2019-04-29T07:02:14.425Z,4.57
2019-04-29T07:05:04.118Z,4.67
2019-04-29T07:07:54.725Z,4.43
2019-04-29T07:10:45.141Z,4.83
2019-04-29T07:13:35.775Z,4.40
2019-04-29T07:16:28.095Z,4.63
2019-04-29T07:19:22.201Z,4.47
2019-04-29T07:22:10.915Z,4.70
2019-04-29T07:25:01.326Z,4.10
2019-04-29T07:27:52.164Z,5.40
2019-04-29T07:31:00.349Z,5.17
2019-04-29T07:33:35.150Z,4.95
2019-04-29T07:36:25.982Z,5.30
2019-04-29T07:39:17.874Z,5.17
2019-04-29T07:42:08.771Z,4.97
2019-04-29T07:45:17.669Z,5.40
2019-04-29T07:48:08.190Z,5.42
2019-04-29T07:51:03.650Z,5.83
2019-04-29T07:53:51.409Z,5.55
2019-04-29T07:56:43.507Z,5.40
2019-04-29T07:59:38.373Z,5.20
2019-04-29T08:02:27.884Z,5.90
2019-04-29T08:05:18.489Z,5.95
2019-04-29T08:08:09.571Z,5.65
2019-04-29T08:11:00.301Z,5.83
2019-04-29T08:13:51.023Z,5.87
2019-04-29T08:16:41.984Z,6.60
2019-04-29T08:19:32.801Z,6.37
2019-04-29T08:22:27.700Z,6.45
2019-04-29T08:25:16.397Z,6.97
2019-04-29T08:28:07.070Z,6.28
2019-04-29T08:30:58.061Z,6.97
2019-04-29T08:33:49.025Z,6.50
2019-04-29T08:36:40.064Z,6.50
2019-04-29T08:39:31.247Z,6.22
2019-04-29T08:42:25.812Z,6.15
2019-04-29T08:45:47.709Z,5.60
2019-04-29T08:48:38.876Z,6.75
2019-04-29T08:51:30.202Z,6.80
2019-04-29T08:54:21.455Z,7.42
2019-04-29T08:57:12.180Z,7.37
2019-04-29T09:00:02.768Z,8.60
2019-04-29T09:02:53.710Z,8.13
2019-04-29T09:05:46.146Z,8.10
2019-04-29T09:08:37.156Z,8.23
2019-04-29T09:11:27.877Z,8.45
2019-04-29T09:14:18.714Z,8.33
2019-04-29T09:17:20.209Z,8.75
2019-04-29T09:20:01.863Z,8.78
2019-04-29T09:22:57.725Z,8.63
2019-04-29T09:26:08.295Z,9.75
2019-04-29T09:29:03.881Z,8.95
2019-04-29T09:31:52.975Z,8.30
2019-04-29T09:34:44.081Z,9.28
2019-04-29T09:37:35.139Z,8.93
2019-04-29T09:40:27.984Z,9.68
2019-04-29T09:43:46.903Z,9.17
2019-04-29T09:46:37.374Z,9.60
2019-04-29T09:49:27.651Z,9.30
2019-04-29T09:52:17.726Z,8.90
2019-04-29T09:55:08.018Z,9.30
2019-04-29T09:57:58.415Z,9.93
2019-04-29T10:01:13.730Z,8.87
2019-04-29T10:04:08.553Z,9.43
2019-04-29T10:06:59.158Z,9.47
2019-04-29T10:09:57.045Z,8.97
2019-04-29T10:12:41.053Z,9.37
2019-04-29T10:15:42.165Z,8.23
2019-04-29T10:18:45.704Z,8.60
2019-04-29T10:21:36.418Z,8.77
2019-04-29T10:24:26.532Z,8.57
2019-04-29T10:27:16.906Z,8.77
2019-04-29T10:30:07.956Z,8.63
2019-04-29T10:32:58.913Z,8.83
2019-04-29T10:35:49.285Z,8.37
2019-04-29T10:38:40.531Z,9.67
2019-04-29T10:41:40.371Z,9.63
2019-04-29T10:44:38.365Z,8.43
2019-04-29T10:47:59.539Z,8.03
2019-04-29T10:50:52.138Z,7.90
2019-04-29T10:53:41.789Z,7.90
2019-04-29T10:56:35.352Z,8.23
2019-04-29T10:59:35.728Z,7.97
2019-04-29T11:02:49.363Z,7.77
2019-04-29T11:05:59.923Z,7.03
2019-04-29T11:08:46.878Z,6.33
2019-04-29T11:11:37.178Z,8.07
2019-04-29T11:14:27.771Z,8.33
2019-04-29T11:17:18.190Z,8.57
2019-04-29T11:20:11.328Z,7.93
2019-04-29T11:23:16.565Z,7.73
2019-04-29T11:26:27.078Z,5.67
2019-04-29T11:29:17.597Z,3.10
2019-04-29T11:32:16.922Z,5.07
2019-04-29T11:35:37.957Z,3.03
2019-04-29T11:38:28.505Z,2.83
2019-04-29T11:41:20.906Z,2.10
2019-04-29T11:44:11.905Z,2.08
2019-04-29T11:47:02.214Z,2.10
2019-04-29T11:49:59.769Z,2.30
2019-04-29T11:52:50.639Z,2.77
2019-04-29T11:55:46.267Z,2.40
2019-04-29T11:58:50.204Z,2.40
2019-04-29T12:01:51.672Z,2.62
2019-04-29T12:04:46.844Z,2.90
2019-04-29T12:07:37.160Z,2.50
2019-04-29T12:10:27.826Z,2.50
2019-04-29T12:13:35.362Z,2.85
2019-04-29T12:16:29.314Z,2.52
2019-04-29T12:19:26.158Z,2.55
2019-04-29T12:22:28.304Z,2.22
2019-04-29T12:25:09.041Z,2.50
2019-04-29T12:28:02.033Z,2.60
2019-04-29T12:30:54.041Z,2.67
2019-04-29T12:33:53.597Z,5.97
2019-04-29T12:36:55.036Z,7.08
2019-04-29T12:39:53.814Z,6.87
2019-04-29T12:43:16.128Z,6.10
2019-04-29T12:46:14.618Z,6.33
2019-04-29T12:49:08.506Z,6.17
2019-04-29T12:51:57.888Z,4.23
2019-04-29T12:54:48.578Z,2.57
2019-04-29T12:57:38.647Z,4.90
2019-04-29T13:00:31.875Z,7.13
2019-04-29T13:03:41.242Z,6.50
2019-04-29T13:06:53.494Z,6.23
2019-04-29T13:09:44.738Z,5.43
2019-04-29T13:12:35.233Z,5.73
2019-04-29T13:15:43.926Z,6.47
2019-04-29T13:18:48.738Z,6.33
2019-04-29T13:21:39.199Z,6.17
2019-04-29T13:24:28.686Z,6.70
2019-04-29T13:27:20.869Z,5.10
2019-04-29T13:30:16.006Z,5.43
2019-04-29T13:33:05.927Z,5.77
2019-04-29T13:35:56.483Z,4.43
2019-04-29T13:38:46.649Z,5.30
2019-04-29T13:41:55.582Z,4.90
2019-04-29T13:44:29.037Z,4.67
2019-04-29T13:47:50.099Z,3.90
2019-04-29T13:51:04.897Z,4.73
2019-04-29T13:53:59.848Z,4.30
2019-04-29T13:56:56.051Z,4.50
2019-04-29T14:00:01.164Z,4.73
2019-04-29T14:02:59.522Z,5.10
2019-04-29T14:06:03.343Z,2.27
2019-04-29T14:08:41.581Z,2.00
2019-04-29T14:11:32.121Z,2.20
2019-04-29T14:14:22.996Z,2.33
2019-04-29T14:17:25.734Z,2.07
2019-04-29T14:20:10.828Z,1.80
2019-04-29T14:22:59.789Z,2.07
2019-04-29T14:25:50.290Z,1.90
2019-04-29T14:28:40.217Z,2.17
2019-04-29T14:31:32.871Z,1.80
2019-04-29T14:34:30.577Z,2.03
2019-04-29T14:37:24.881Z,1.80
2019-04-29T14:40:12.845Z,2.10
2019-04-29T14:43:28.883Z,2.20
2019-04-29T14:46:39.117Z,2.07
2019-04-29T14:49:35.367Z,2.10
2019-04-29T14:52:25.229Z,1.77
2019-04-29T14:55:19.887Z,1.80
2019-04-29T14:58:10.775Z,2.00
2019-04-29T15:01:29.316Z,1.83
2019-04-29T15:04:22.602Z,2.00
2019-04-29T15:07:12.868Z,1.80
2019-04-29T15:10:03.175Z,1.63
2019-04-29T15:13:06.756Z,2.20
2019-04-29T15:16:16.494Z,1.70
2019-04-29T15:19:24.284Z,2.17
2019-04-29T15:22:15.051Z,1.90
2019-04-29T15:25:07.191Z,2.30
2019-04-29T15:27:57.249Z,1.90
2019-04-29T15:30:47.464Z,2.10
2019-04-29T15:33:37.919Z,1.80
2019-04-29T15:36:30.712Z,1.90
2019-04-29T15:39:20.612Z,1.90
2019-04-29T15:42:10.987Z,1.73
2019-04-29T15:45:01.288Z,1.80
2019-04-29T15:47:51.332Z,2.10
2019-04-29T15:50:41.711Z,1.60
2019-04-29T15:53:33.904Z,1.40
2019-04-29T15:56:28.749Z,1.70
2019-04-29T15:59:16.816Z,1.50
2019-04-29T16:02:08.628Z,1.60
2019-04-29T16:05:18.021Z,1.83
2019-04-29T16:08:29.392Z,1.50
2019-04-29T16:11:35.582Z,1.80
2019-04-29T16:14:25.816Z,3.20
2019-04-29T16:17:20.258Z,3.70
2019-04-29T16:20:07.867Z,2.43
2019-04-29T16:23:00.570Z,1.90
2019-04-29T16:25:52.146Z,1.77
2019-04-29T16:28:42.016Z,2.13
2019-04-29T16:31:32.139Z,2.07
2019-04-29T16:34:22.380Z,1.60
2019-04-29T16:37:18.975Z,2.23
2019-04-29T16:40:03.930Z,2.07
2019-04-29T16:43:11.168Z,1.80
2019-04-29T16:46:17.374Z,1.90
2019-04-29T16:49:07.609Z,1.73
2019-04-29T16:51:58.790Z,2.00
2019-04-29T16:54:49.188Z,2.50
2019-04-29T16:57:39.635Z,2.30
2019-04-29T17:00:32.373Z,2.13
2019-04-29T17:03:22.911Z,2.03
2019-04-29T17:06:13.438Z,2.90
2019-04-29T17:09:23.348Z,2.23
2019-04-29T17:12:13.966Z,2.00
2019-04-29T17:15:17.296Z,2.00
2019-04-29T17:17:57.141Z,2.10
2019-04-29T17:20:47.760Z,2.70
2019-04-29T17:23:38.016Z,2.03
2019-04-29T17:26:35.734Z,2.43
2019-04-29T17:29:49.295Z,2.50
2019-04-29T17:32:48.329Z,2.40
2019-04-29T17:35:42.908Z,2.80
2019-04-29T17:38:30.412Z,2.20
2019-04-29T17:41:20.772Z,2.47
2019-04-29T17:44:29.007Z,2.70
2019-04-29T17:47:42.584Z,2.60
2019-04-29T17:50:56.151Z,2.63
2019-04-29T17:53:51.025Z,2.97
2019-04-29T17:57:15.328Z,2.83
2019-04-29T18:00:08.586Z,2.83
2019-04-29T18:03:18.956Z,3.17
2019-04-29T18:06:17.281Z,2.70
2019-04-29T18:09:31.273Z,3.33
2019-04-29T18:12:24.892Z,3.23
2019-04-29T18:15:19.962Z,3.43
2019-04-29T18:18:17.040Z,3.10
2019-04-29T18:21:32.832Z,2.90
2019-04-29T18:24:55.486Z,3.00
2019-04-29T18:27:49.076Z,3.17
2019-04-29T18:30:38.513Z,3.30
2019-04-29T18:33:30.355Z,3.10
2019-04-29T18:36:26.246Z,2.90
2019-04-29T18:39:20.046Z,3.30
2019-04-29T18:42:08.815Z,3.90
2019-04-29T18:45:00.353Z,3.40
2019-04-29T18:47:51.325Z,3.77
2019-04-29T18:50:41.771Z,4.30
2019-04-29T18:53:32.222Z,3.80
2019-04-29T18:56:22.624Z,4.10
2019-04-29T18:59:12.926Z,5.10
2019-04-29T19:02:07.713Z,4.57
2019-04-29T19:05:19.930Z,5.23
2019-04-29T19:08:14.630Z,5.80
2019-04-29T19:11:05.020Z,6.20
2019-04-29T19:13:58.942Z,5.43
2019-04-29T19:16:52.691Z,6.13
2019-04-29T19:19:40.596Z,5.70
2019-04-29T19:22:31.250Z,5.87
2019-04-29T19:25:21.601Z,6.23
2019-04-29T19:28:15.685Z,6.03
2019-04-29T19:31:07.264Z,6.00
2019-04-29T19:33:57.205Z,5.07
2019-04-29T19:36:50.832Z,5.10
2019-04-29T19:39:39.492Z,6.27
2019-04-29T19:42:35.650Z,7.60
2019-04-29T19:45:21.823Z,7.83
2019-04-29T19:48:12.131Z,8.87
2019-04-29T19:51:18.820Z,9.30
2019-04-29T19:53:55.262Z,9.20
2019-04-29T19:56:45.448Z,10.70
2019-04-29T19:59:36.645Z,9.70
2019-04-29T20:02:27.846Z,9.47
2019-04-29T20:05:38.958Z,8.70
2019-04-29T20:08:43.396Z,7.23
2019-04-29T20:11:18.677Z,6.67
2019-04-29T20:14:18.420Z,7.07
2019-04-29T20:17:30.888Z,6.77
2019-04-29T20:20:39.069Z,6.57
2019-04-29T20:23:29.379Z,7.40
2019-04-29T20:26:28.925Z,6.80
2019-04-29T20:29:11.362Z,7.37
2019-04-29T20:32:01.827Z,6.87
2019-04-29T20:34:52.448Z,7.10
2019-04-29T20:37:43.469Z,6.70
2019-04-29T20:40:37.896Z,6.43
2019-04-29T20:43:29.632Z,6.93
2019-04-29T20:46:18.262Z,6.90
2019-04-29T20:49:08.825Z,6.87
2019-04-29T20:52:13.347Z,7.13
2019-04-29T20:55:05.860Z,6.40
2019-04-29T20:57:55.555Z,6.67
2019-04-29T21:00:46.236Z,6.23
2019-04-29T21:03:36.750Z,7.07
2019-04-29T21:06:28.260Z,7.40
2019-04-29T21:09:22.201Z,7.63
2019-04-29T21:12:34.846Z,7.20
2019-04-29T21:15:36.290Z,6.60
2019-04-29T21:18:27.184Z,6.70
2019-04-29T21:21:17.170Z,6.80
2019-04-29T21:24:14.064Z,7.00
2019-04-29T21:26:59.198Z,6.90
2019-04-29T21:29:49.750Z,7.20
2019-04-29T21:32:40.108Z,7.73
2019-04-29T21:35:38.180Z,7.77
2019-04-29T21:39:06.108Z,8.37
2019-04-29T21:42:05.711Z,7.93
2019-04-29T21:44:58.693Z,8.27
2019-04-29T21:47:53.026Z,6.70
2019-04-29T21:50:39.701Z,3.83
2019-04-29T21:53:31.565Z,3.17
2019-04-29T21:56:21.762Z,2.77
2019-04-29T21:59:12.639Z,3.20
2019-04-29T22:02:06.635Z,3.30
2019-04-29T22:04:56.809Z,3.30
2019-04-29T22:07:47.569Z,3.97
2019-04-29T22:10:37.949Z,3.63
2019-04-29T22:13:30.716Z,3.60
2019-04-29T22:16:19.769Z,3.43
2019-04-29T22:19:10.123Z,3.10
2019-04-29T22:22:01.625Z,3.40
2019-04-29T22:24:51.973Z,2.97
2019-04-29T22:27:42.376Z,3.00
2019-04-29T22:30:32.621Z,2.73
2019-04-29T22:33:22.683Z,2.73
2019-04-29T22:36:14.796Z,2.50
2019-04-29T22:39:06.232Z,2.40
2019-04-29T22:42:15.149Z,2.77
2019-04-29T22:45:05.752Z,2.67
2019-04-29T22:48:11.701Z,2.63
2019-04-29T22:50:47.863Z,2.90
2019-04-29T22:53:40.131Z,2.73
2019-04-29T22:56:30.244Z,2.70
2019-04-29T22:59:20.612Z,3.37
2019-04-29T23:02:10.971Z,3.83
2019-04-29T23:05:00.966Z,3.60
2019-04-29T23:07:52.886Z,4.00
2019-04-29T23:10:42.898Z,4.60
2019-04-29T23:13:33.150Z,4.30
2019-04-29T23:16:23.532Z,4.80
2019-04-29T23:19:17.661Z,4.50
2019-04-29T23:22:22.333Z,4.50
2019-04-29T23:25:12.578Z,4.10
2019-04-29T23:28:03.027Z,4.43
2019-04-29T23:30:53.538Z,3.33
2019-04-29T23:33:43.692Z,3.73
2019-04-29T23:36:33.836Z,3.23
2019-04-29T23:39:24.909Z,2.93
2019-04-29T23:42:16.292Z,3.00
2019-04-29T23:45:06.807Z,3.37
2019-04-29T23:47:56.929Z,3.57
2019-04-29T23:50:49.665Z,2.50
2019-04-29T23:53:38.961Z,2.97
2019-04-29T23:56:31.879Z,3.00
2019-04-29T23:59:26.524Z,3.13
